createdAt,value
2022-11-16T00:01:05.495Z,9.07
2022-11-16T00:03:33.048Z,9.13
2022-11-16T00:06:01.320Z,9.77
2022-11-16T00:08:34.897Z,10.45
2022-11-16T00:11:06.047Z,9.48
2022-11-16T00:13:33.842Z,9.77
2022-11-16T00:16:00.672Z,9.10
2022-11-16T00:18:27.771Z,8.75
2022-11-16T00:20:54.812Z,8.43
2022-11-16T00:23:21.594Z,10.20
2022-11-16T00:25:48.663Z,8.20
2022-11-16T00:28:15.765Z,9.93
2022-11-16T00:30:42.948Z,6.90
2022-11-16T00:33:14.521Z,9.07
2022-11-16T00:35:41.277Z,8.38
2022-11-16T00:38:08.139Z,7.50
2022-11-16T00:40:34.726Z,8.23
2022-11-16T00:43:01.447Z,8.43
2022-11-16T00:45:28.101Z,8.40
2022-11-16T00:48:00.167Z,9.27
2022-11-16T00:50:27.250Z,7.45
2022-11-16T00:52:54.370Z,8.15
2022-11-16T00:55:21.061Z,8.68
2022-11-16T00:57:47.779Z,9.38
2022-11-16T01:00:15.013Z,10.27
2022-11-16T01:02:41.728Z,8.93
2022-11-16T01:05:09.892Z,7.47
2022-11-16T01:07:38.630Z,9.98
2022-11-16T01:10:08.006Z,9.55
2022-11-16T01:12:35.147Z,9.48
2022-11-16T01:15:01.782Z,9.10
2022-11-16T01:17:28.541Z,10.25
2022-11-16T01:19:55.340Z,7.28
2022-11-16T01:22:21.966Z,8.40
2022-11-16T01:24:48.613Z,9.07
2022-11-16T01:27:15.385Z,8.75
2022-11-16T01:29:42.140Z,8.18
2022-11-16T01:32:08.877Z,8.95
2022-11-16T01:34:35.798Z,8.50
2022-11-16T01:37:02.521Z,8.27
2022-11-16T01:39:29.475Z,8.95
2022-11-16T01:41:56.200Z,8.00
2022-11-16T01:44:32.032Z,7.70
2022-11-16T01:47:12.011Z,8.38
2022-11-16T01:49:42.973Z,10.07
2022-11-16T01:52:14.437Z,11.85
2022-11-16T01:54:45.231Z,9.27
2022-11-16T01:57:20.153Z,9.82
2022-11-16T01:59:49.359Z,9.90
2022-11-16T02:02:16.130Z,9.32
2022-11-16T02:04:44.234Z,8.68
2022-11-16T02:08:07.846Z,8.30
2022-11-16T02:10:54.704Z,10.57
2022-11-16T02:13:27.402Z,9.65
2022-11-16T02:16:06.549Z,10.13
2022-11-16T02:18:37.837Z,9.25
2022-11-16T02:21:23.303Z,11.07
2022-11-16T02:24:20.147Z,10.10
2022-11-16T02:27:14.372Z,9.15
2022-11-16T02:29:52.030Z,10.32
2022-11-16T02:32:40.043Z,9.65
2022-11-16T02:35:28.383Z,11.43
2022-11-16T02:38:01.782Z,10.50
2022-11-16T02:40:31.773Z,11.93
2022-11-16T02:43:04.319Z,10.38
2022-11-16T02:45:34.199Z,9.13
2022-11-16T02:48:08.105Z,12.32
2022-11-16T02:50:36.422Z,10.30
2022-11-16T02:53:03.797Z,11.98
2022-11-16T02:55:34.026Z,10.82
2022-11-16T02:58:03.811Z,9.55
2022-11-16T03:00:59.342Z,11.98
2022-11-16T03:03:52.577Z,10.52
2022-11-16T03:06:28.543Z,13.43
2022-11-16T03:09:01.830Z,11.40
2022-11-16T03:11:48.680Z,12.20
2022-11-16T03:14:20.488Z,12.40
2022-11-16T03:16:52.710Z,10.02
2022-11-16T03:19:28.726Z,11.82
2022-11-16T03:22:00.393Z,11.25
2022-11-16T03:24:27.026Z,9.35
2022-11-16T03:27:09.743Z,10.82
2022-11-16T03:29:55.263Z,10.35
2022-11-16T03:32:30.105Z,11.85
2022-11-16T03:35:02.327Z,9.00
2022-11-16T03:37:30.080Z,10.23
2022-11-16T03:39:58.031Z,10.48
2022-11-16T03:42:26.935Z,10.32
2022-11-16T03:44:54.830Z,11.60
2022-11-16T03:47:21.487Z,12.63
2022-11-16T03:49:48.233Z,12.88
2022-11-16T03:52:16.366Z,12.18
2022-11-16T03:54:43.071Z,12.80
2022-11-16T03:57:15.392Z,11.65
2022-11-16T03:59:43.295Z,10.52
2022-11-16T04:02:10.407Z,10.27
2022-11-16T04:04:55.401Z,11.48
2022-11-16T04:10:26.027Z,11.60
2022-11-16T04:13:11.541Z,13.30
2022-11-16T04:15:57.015Z,10.10
2022-11-16T04:18:42.457Z,9.82
2022-11-16T04:21:41.633Z,13.98
2022-11-16T04:24:19.186Z,12.43
2022-11-16T04:27:08.980Z,12.15
2022-11-16T04:29:36.256Z,10.40
2022-11-16T04:32:21.420Z,11.60
2022-11-16T04:35:06.839Z,11.60
2022-11-16T04:37:48.839Z,12.13
2022-11-16T04:40:17.032Z,12.15
2022-11-16T04:42:43.727Z,9.85
2022-11-16T04:45:29.256Z,10.55
2022-11-16T04:47:56.019Z,9.93
2022-11-16T04:50:22.677Z,10.85
2022-11-16T04:52:49.291Z,11.35
2022-11-16T04:55:15.939Z,11.25
2022-11-16T04:57:42.555Z,10.35
2022-11-16T05:00:09.965Z,11.48
2022-11-16T05:02:36.600Z,10.70
2022-11-16T05:05:04.102Z,10.35
2022-11-16T05:07:30.763Z,9.93
2022-11-16T05:09:57.431Z,11.18
2022-11-16T05:12:25.884Z,10.10
2022-11-16T05:14:52.622Z,11.13
2022-11-16T05:17:19.766Z,10.27
2022-11-16T05:20:05.052Z,11.55
2022-11-16T05:22:32.062Z,9.93
2022-11-16T05:24:58.793Z,11.90
2022-11-16T05:27:26.957Z,9.15
2022-11-16T05:29:54.262Z,8.75
2022-11-16T05:32:21.913Z,11.57
2022-11-16T05:34:48.748Z,11.48
2022-11-16T05:37:16.070Z,13.35
2022-11-16T05:39:42.809Z,12.90
2022-11-16T05:42:09.636Z,13.75
2022-11-16T05:44:36.288Z,14.93
2022-11-16T05:47:03.064Z,12.50
2022-11-16T05:49:29.673Z,12.57
2022-11-16T05:51:56.366Z,16.13
2022-11-16T05:54:25.768Z,10.63
2022-11-16T05:56:53.436Z,12.95
2022-11-16T05:59:21.569Z,12.85
2022-11-16T06:01:48.698Z,12.52
2022-11-16T06:04:15.427Z,15.00
2022-11-16T06:06:42.142Z,15.13
2022-11-16T06:09:10.413Z,14.30
2022-11-16T06:11:38.308Z,15.40
2022-11-16T06:14:05.716Z,14.13
2022-11-16T06:16:32.735Z,12.73
2022-11-16T06:18:59.957Z,13.88
2022-11-16T06:21:26.571Z,11.82
2022-11-16T06:23:53.541Z,12.57
2022-11-16T06:26:20.161Z,10.98
2022-11-16T06:28:46.825Z,15.52
2022-11-16T06:31:13.444Z,15.02
2022-11-16T06:33:40.036Z,12.32
2022-11-16T06:36:07.071Z,13.98
2022-11-16T06:38:34.121Z,17.50
2022-11-16T06:41:01.535Z,13.85
2022-11-16T06:43:28.163Z,17.88
2022-11-16T06:45:57.665Z,13.82
2022-11-16T06:48:24.911Z,12.90
2022-11-16T06:50:52.606Z,14.60
2022-11-16T06:53:22.459Z,11.60
2022-11-16T06:55:52.673Z,14.20
2022-11-16T06:58:19.302Z,13.55
2022-11-16T07:00:45.912Z,17.23
2022-11-16T07:03:12.540Z,12.73
2022-11-16T07:05:41.029Z,18.67
2022-11-16T07:08:08.484Z,15.98
2022-11-16T07:10:35.634Z,16.27
2022-11-16T07:13:03.570Z,16.38
2022-11-16T07:15:31.754Z,16.58
2022-11-16T07:18:03.815Z,15.70
2022-11-16T07:20:31.075Z,14.98
2022-11-16T07:23:00.808Z,15.73
2022-11-16T07:25:27.528Z,16.98
2022-11-16T07:27:54.153Z,17.20
2022-11-16T07:30:21.046Z,17.73
2022-11-16T07:32:49.198Z,16.70
2022-11-16T07:35:15.899Z,17.85
2022-11-16T07:37:43.041Z,17.58
2022-11-16T07:40:10.118Z,16.25
2022-11-16T07:42:37.079Z,16.33
2022-11-16T07:45:03.987Z,15.90
2022-11-16T07:47:35.890Z,15.93
2022-11-16T07:50:02.646Z,14.30
2022-11-16T07:52:29.357Z,13.90
2022-11-16T07:54:55.941Z,15.95
2022-11-16T07:57:22.547Z,14.85
2022-11-16T07:59:49.103Z,17.92
2022-11-16T08:02:15.724Z,17.40
2022-11-16T08:04:42.379Z,14.95
2022-11-16T08:07:09.144Z,15.32
2022-11-16T08:09:38.127Z,14.82
2022-11-16T08:12:04.910Z,16.17
2022-11-16T08:14:31.501Z,15.27
2022-11-16T08:16:58.080Z,14.23
2022-11-16T08:19:24.689Z,14.43
2022-11-16T08:21:51.306Z,14.32
2022-11-16T08:24:18.407Z,15.75
2022-11-16T08:26:45.242Z,17.65
2022-11-16T08:29:12.402Z,18.20
2022-11-16T08:31:39.591Z,14.75
2022-11-16T08:34:06.754Z,13.95
2022-11-16T08:36:36.940Z,15.00
2022-11-16T08:39:04.372Z,14.27
2022-11-16T08:41:31.317Z,13.60
2022-11-16T08:43:59.424Z,17.38
2022-11-16T08:46:26.131Z,14.25
2022-11-16T08:48:58.769Z,15.15
2022-11-16T08:51:26.164Z,15.73
2022-11-16T08:53:59.440Z,14.52
2022-11-16T08:56:28.298Z,13.85
2022-11-16T08:58:58.431Z,12.18
2022-11-16T09:01:28.132Z,13.05
2022-11-16T09:03:55.411Z,14.55
2022-11-16T09:06:23.996Z,14.85
2022-11-16T09:08:50.798Z,15.23
2022-11-16T09:11:21.433Z,15.70
2022-11-16T09:13:50.001Z,15.27
2022-11-16T09:16:17.786Z,12.88
2022-11-16T09:18:47.035Z,12.60
2022-11-16T09:21:21.922Z,14.07
2022-11-16T09:23:49.423Z,15.60
2022-11-16T09:26:20.459Z,12.43
2022-11-16T09:28:47.955Z,14.70
2022-11-16T09:31:17.644Z,16.77
2022-11-16T09:33:48.699Z,16.73
2022-11-16T09:36:15.782Z,14.50
2022-11-16T09:41:44.361Z,15.73
2022-11-16T09:44:32.986Z,13.90
2022-11-16T09:47:00.991Z,15.35
2022-11-16T09:49:41.289Z,13.32
2022-11-16T09:52:20.834Z,16.83
2022-11-16T09:54:48.685Z,16.42
2022-11-16T09:57:22.063Z,16.83
2022-11-16T09:59:52.108Z,15.80
2022-11-16T10:02:22.294Z,14.68
2022-11-16T10:05:16.635Z,16.55
2022-11-16T10:07:50.110Z,17.67
2022-11-16T10:10:36.642Z,18.15
2022-11-16T10:13:18.057Z,18.23
2022-11-16T10:15:47.585Z,16.48
2022-11-16T10:18:25.453Z,17.48
2022-11-16T10:21:03.575Z,18.48
2022-11-16T10:23:39.184Z,23.40
2022-11-16T10:26:15.589Z,19.35
2022-11-16T10:29:10.192Z,17.40
2022-11-16T10:31:51.468Z,18.20
2022-11-16T10:34:24.718Z,17.88
2022-11-16T10:36:54.172Z,16.63
2022-11-16T10:39:21.242Z,19.67
2022-11-16T10:41:51.089Z,17.63
2022-11-16T10:44:20.439Z,17.98
2022-11-16T10:47:02.998Z,20.33
2022-11-16T10:50:14.409Z,17.58
2022-11-16T10:52:41.067Z,19.45
2022-11-16T10:55:08.129Z,19.85
2022-11-16T10:57:58.045Z,19.38
2022-11-16T11:00:39.729Z,17.65
2022-11-16T11:03:07.265Z,20.80
2022-11-16T11:05:36.102Z,20.48
2022-11-16T11:08:16.919Z,19.40
2022-11-16T11:10:43.795Z,16.83
2022-11-16T11:13:10.371Z,16.17
2022-11-16T11:15:42.937Z,18.40
2022-11-16T11:18:34.638Z,18.20
2022-11-16T11:21:32.782Z,17.08
2022-11-16T11:24:16.401Z,17.40
2022-11-16T11:26:52.986Z,15.45
2022-11-16T11:29:25.231Z,15.38
2022-11-16T11:32:04.151Z,14.30
2022-11-16T11:34:34.855Z,14.02
2022-11-16T11:37:06.543Z,12.88
2022-11-16T11:39:37.255Z,14.38
2022-11-16T11:42:22.613Z,13.98
2022-11-16T11:45:03.547Z,11.60
2022-11-16T11:50:45.261Z,13.73
2022-11-16T11:53:20.656Z,11.68
2022-11-16T11:55:49.482Z,12.25
2022-11-16T11:58:18.323Z,12.52
2022-11-16T12:01:18.405Z,13.68
2022-11-16T12:03:58.606Z,12.15
2022-11-16T12:06:57.679Z,11.95
2022-11-16T12:09:44.477Z,10.30
2022-11-16T12:12:14.681Z,10.05
2022-11-16T12:14:56.642Z,7.85
2022-11-16T12:17:56.278Z,8.20
2022-11-16T12:20:42.817Z,7.80
2022-11-16T12:23:15.269Z,9.40
2022-11-16T12:25:50.214Z,7.50
2022-11-16T12:28:51.248Z,7.38
2022-11-16T12:31:30.070Z,5.40
2022-11-16T12:36:46.115Z,6.38
2022-11-16T12:39:19.256Z,5.95
2022-11-16T12:42:23.500Z,5.80
2022-11-16T12:45:10.187Z,5.78
2022-11-16T12:48:10.638Z,7.35
2022-11-16T12:51:00.476Z,6.85
2022-11-16T12:53:38.247Z,6.75
2022-11-16T12:56:08.074Z,6.30
2022-11-16T12:58:56.862Z,7.00
2022-11-16T13:02:01.801Z,5.32
2022-11-16T13:04:41.074Z,6.47
2022-11-16T13:07:28.140Z,6.25
2022-11-16T13:10:05.389Z,4.13
2022-11-16T13:12:34.253Z,4.40
2022-11-16T13:15:05.160Z,4.07
2022-11-16T13:17:37.140Z,4.88
2022-11-16T13:20:29.886Z,4.82
2022-11-16T13:23:02.736Z,3.33
2022-11-16T13:25:50.208Z,4.72
2022-11-16T13:28:30.643Z,4.95
2022-11-16T13:31:15.744Z,5.22
2022-11-16T13:34:00.308Z,3.40
2022-11-16T13:36:43.678Z,4.35
2022-11-16T13:39:18.700Z,4.60
2022-11-16T13:41:51.599Z,3.88
2022-11-16T13:44:23.470Z,5.32
2022-11-16T13:47:06.694Z,3.63
2022-11-16T13:49:34.443Z,5.25
2022-11-16T13:52:22.731Z,5.82
2022-11-16T13:54:54.737Z,6.22
2022-11-16T13:57:32.283Z,6.85
2022-11-16T14:00:02.075Z,4.85
2022-11-16T14:02:38.554Z,5.95
2022-11-16T14:05:16.856Z,4.32
2022-11-16T14:07:50.451Z,4.82
2022-11-16T14:10:36.902Z,6.95
2022-11-16T14:13:05.668Z,4.43
2022-11-16T14:15:37.982Z,3.33
2022-11-16T14:18:08.815Z,7.18
2022-11-16T14:20:58.760Z,4.15
2022-11-16T14:23:44.464Z,3.22
2022-11-16T14:26:37.678Z,7.03
2022-11-16T14:29:04.436Z,6.20
2022-11-16T14:31:47.104Z,3.72
2022-11-16T14:34:29.793Z,6.45
2022-11-16T14:36:58.719Z,4.57
2022-11-16T14:39:39.967Z,3.95
2022-11-16T14:42:43.016Z,5.22
2022-11-16T14:45:29.443Z,8.73
2022-11-16T14:48:06.123Z,7.25
2022-11-16T14:50:40.692Z,5.65
2022-11-16T14:53:13.369Z,7.43
2022-11-16T14:58:17.864Z,5.35
2022-11-16T15:01:12.772Z,3.00
2022-11-16T15:03:53.833Z,6.63
2022-11-16T15:06:21.289Z,3.97
2022-11-16T15:09:13.574Z,11.43
2022-11-16T15:12:01.400Z,9.60
2022-11-16T15:14:31.723Z,7.20
2022-11-16T15:17:00.195Z,6.53
2022-11-16T15:19:30.974Z,5.13
2022-11-16T15:22:00.670Z,5.47
2022-11-16T15:24:32.880Z,6.05
2022-11-16T15:27:08.653Z,7.07
2022-11-16T15:29:36.093Z,3.75
2022-11-16T15:32:02.836Z,4.72
2022-11-16T15:34:31.828Z,4.65
2022-11-16T15:36:58.424Z,5.50
2022-11-16T15:39:41.122Z,6.15
2022-11-16T15:42:14.506Z,7.07
2022-11-16T15:44:42.245Z,7.15
2022-11-16T15:47:12.774Z,5.57
2022-11-16T15:49:42.394Z,7.32
2022-11-16T15:52:10.064Z,9.50
2022-11-16T15:55:02.781Z,8.65
2022-11-16T15:57:29.502Z,7.13
2022-11-16T15:59:57.365Z,7.30
2022-11-16T16:02:27.391Z,9.15
2022-11-16T16:04:54.066Z,10.38
2022-11-16T16:07:40.020Z,8.15
2022-11-16T16:10:27.059Z,8.18
2022-11-16T16:12:56.548Z,12.68
2022-11-16T16:15:30.046Z,12.57
2022-11-16T16:17:58.683Z,11.60
2022-11-16T16:20:31.265Z,10.43
2022-11-16T16:23:09.833Z,15.13
2022-11-16T16:25:36.940Z,13.23
2022-11-16T16:28:04.016Z,12.95
2022-11-16T16:30:33.053Z,13.27
2022-11-16T16:32:59.802Z,13.52
2022-11-16T16:35:26.721Z,12.43
2022-11-16T16:37:58.827Z,11.77
2022-11-16T16:40:26.265Z,13.63
2022-11-16T16:42:54.726Z,16.15
2022-11-16T16:45:30.899Z,17.75
2022-11-16T16:47:57.495Z,17.00
2022-11-16T16:50:24.153Z,15.68
2022-11-16T16:52:50.741Z,19.35
2022-11-16T16:55:17.319Z,13.65
2022-11-16T16:57:43.916Z,13.05
2022-11-16T17:00:11.433Z,12.25
2022-11-16T17:02:38.549Z,12.10
2022-11-16T17:05:05.620Z,13.13
2022-11-16T17:07:32.230Z,17.10
2022-11-16T17:09:58.890Z,15.05
2022-11-16T17:12:25.487Z,13.50
2022-11-16T17:15:04.977Z,19.45
2022-11-16T17:17:35.379Z,14.98
2022-11-16T17:20:02.026Z,14.10
2022-11-16T17:22:28.654Z,13.55
2022-11-16T17:24:55.601Z,17.40
2022-11-16T17:27:22.223Z,15.55
2022-11-16T17:29:48.866Z,17.10
2022-11-16T17:32:15.657Z,22.20
2022-11-16T17:34:42.331Z,17.55
2022-11-16T17:37:09.015Z,16.20
2022-11-16T17:39:35.710Z,21.75
2022-11-16T17:42:02.373Z,16.00
2022-11-16T17:44:29.124Z,16.25
2022-11-16T17:46:55.802Z,17.83
2022-11-16T17:49:22.401Z,21.00
2022-11-16T17:51:49.082Z,17.30
2022-11-16T17:54:15.661Z,18.23
2022-11-16T17:56:42.222Z,22.88
2022-11-16T17:59:08.841Z,20.13
2022-11-16T18:01:35.536Z,24.00
2022-11-16T18:04:02.496Z,23.58
2022-11-16T18:06:29.428Z,20.73
2022-11-16T18:08:57.542Z,21.00
2022-11-16T18:11:26.461Z,20.50
2022-11-16T18:14:00.387Z,18.88
2022-11-16T18:16:32.527Z,21.35
2022-11-16T18:19:07.018Z,21.17
2022-11-16T18:21:44.211Z,27.45
2022-11-16T18:24:11.676Z,29.85
2022-11-16T18:26:40.657Z,29.00
2022-11-16T18:29:12.034Z,28.30
2022-11-16T18:31:41.907Z,26.30
2022-11-16T18:34:09.169Z,24.05
2022-11-16T18:36:35.968Z,25.50
2022-11-16T18:39:02.567Z,22.23
2022-11-16T18:41:29.686Z,24.83
2022-11-16T18:44:01.336Z,18.27
2022-11-16T18:46:32.761Z,18.83
2022-11-16T18:49:00.013Z,17.80
2022-11-16T18:51:27.798Z,21.55
2022-11-16T18:53:55.882Z,14.82
2022-11-16T18:56:24.008Z,15.55
2022-11-16T18:58:52.433Z,14.30
2022-11-16T19:01:22.292Z,14.07
2022-11-16T19:03:51.673Z,13.77
2022-11-16T19:06:18.544Z,13.95
2022-11-16T19:08:50.494Z,15.63
2022-11-16T19:11:20.759Z,14.93
2022-11-16T19:14:03.732Z,21.00
2022-11-16T19:16:31.101Z,22.95
2022-11-16T19:18:57.700Z,15.63
2022-11-16T19:21:24.807Z,16.52
2022-11-16T19:23:53.005Z,15.43
2022-11-16T19:26:21.934Z,18.63
2022-11-16T19:28:50.073Z,20.08
2022-11-16T19:31:25.354Z,17.25
2022-11-16T19:34:02.601Z,18.85
2022-11-16T19:36:30.543Z,18.60
2022-11-16T19:38:57.640Z,20.50
2022-11-16T19:41:25.250Z,18.67
2022-11-16T19:43:56.824Z,19.98
2022-11-16T19:46:24.715Z,19.17
2022-11-16T19:48:52.064Z,24.30
2022-11-16T19:51:28.936Z,18.48
2022-11-16T19:53:59.928Z,18.38
2022-11-16T19:56:26.836Z,20.55
2022-11-16T19:58:53.599Z,14.63
2022-11-16T20:01:25.070Z,18.75
2022-11-16T20:03:52.033Z,17.17
2022-11-16T20:06:18.602Z,19.63
2022-11-16T20:08:53.985Z,18.67
2022-11-16T20:11:26.846Z,21.52
2022-11-16T20:13:55.351Z,18.27
2022-11-16T20:16:32.796Z,20.42
2022-11-16T20:19:04.221Z,22.15
2022-11-16T20:21:44.446Z,25.08
2022-11-16T20:24:13.566Z,25.52
2022-11-16T20:26:46.491Z,25.65
2022-11-16T20:29:14.325Z,24.30
2022-11-16T20:31:42.912Z,28.08
2022-11-16T20:34:14.137Z,24.13
2022-11-16T20:36:43.555Z,28.85
2022-11-16T20:39:15.830Z,23.02
2022-11-16T20:41:43.911Z,22.73
2022-11-16T20:44:16.569Z,23.75
2022-11-16T20:46:44.964Z,21.55
2022-11-16T20:49:11.793Z,23.75
2022-11-16T20:51:38.490Z,23.13
2022-11-16T20:54:05.379Z,20.35
2022-11-16T20:56:32.291Z,24.42
2022-11-16T20:58:59.485Z,21.65
2022-11-16T21:01:33.439Z,19.92
2022-11-16T21:04:05.124Z,19.73
2022-11-16T21:06:32.805Z,20.42
2022-11-16T21:09:00.007Z,22.85
2022-11-16T21:11:29.106Z,19.77
2022-11-16T21:14:14.865Z,19.13
2022-11-16T21:16:41.487Z,18.63
2022-11-16T21:19:08.354Z,20.83
2022-11-16T21:21:35.340Z,20.80
2022-11-16T21:24:02.028Z,22.63
2022-11-16T21:26:31.148Z,18.60
2022-11-16T21:28:58.984Z,18.15
2022-11-16T21:31:27.854Z,16.50
2022-11-16T21:33:55.113Z,18.02
2022-11-16T21:36:23.951Z,15.15
2022-11-16T21:38:51.760Z,19.08
2022-11-16T21:41:20.786Z,18.02
2022-11-16T21:43:47.642Z,17.67
2022-11-16T21:46:21.334Z,18.58
2022-11-16T21:48:48.391Z,15.20
2022-11-16T21:51:20.211Z,19.63
2022-11-16T21:53:47.313Z,19.10
2022-11-16T21:56:19.602Z,17.70
2022-11-16T21:58:46.764Z,18.05
2022-11-16T22:01:15.988Z,17.83
2022-11-16T22:03:43.044Z,21.13
2022-11-16T22:06:32.117Z,17.05
2022-11-16T22:08:58.837Z,18.13
2022-11-16T22:11:25.930Z,16.65
2022-11-16T22:13:52.680Z,15.98
2022-11-16T22:16:20.986Z,18.63
2022-11-16T22:18:47.585Z,15.20
2022-11-16T22:21:14.262Z,16.83
2022-11-16T22:23:41.331Z,16.90
2022-11-16T22:26:11.237Z,19.77
2022-11-16T22:28:38.518Z,18.27
2022-11-16T22:31:06.744Z,13.60
2022-11-16T22:33:34.644Z,17.17
2022-11-16T22:36:01.812Z,14.30
2022-11-16T22:38:28.722Z,16.42
2022-11-16T22:40:57.151Z,17.00
2022-11-16T22:43:28.518Z,18.50
2022-11-16T22:46:01.795Z,14.65
2022-11-16T22:48:32.200Z,17.50
2022-11-16T22:51:25.616Z,16.40
2022-11-16T22:53:54.202Z,17.00
2022-11-16T22:56:21.070Z,16.17
2022-11-16T22:58:47.690Z,13.02
2022-11-16T23:01:14.462Z,15.40
2022-11-16T23:03:41.268Z,13.25
2022-11-16T23:06:08.316Z,14.95
2022-11-16T23:08:35.416Z,14.85
2022-11-16T23:11:32.333Z,18.13
2022-11-16T23:14:31.354Z,17.60
2022-11-16T23:16:57.982Z,13.20
2022-11-16T23:19:43.705Z,16.20
2022-11-16T23:22:34.844Z,15.50
2022-11-16T23:25:20.293Z,15.50
2022-11-16T23:27:58.790Z,12.35
2022-11-16T23:30:26.684Z,13.88
2022-11-16T23:32:53.678Z,15.77
2022-11-16T23:35:20.659Z,13.27
2022-11-16T23:37:55.782Z,15.40
2022-11-16T23:40:26.794Z,18.35
2022-11-16T23:43:12.951Z,13.63
2022-11-16T23:45:40.671Z,14.27
2022-11-16T23:48:08.941Z,13.95
2022-11-16T23:50:36.054Z,16.23
2022-11-16T23:53:03.522Z,14.27
2022-11-16T23:55:33.141Z,13.98
2022-11-16T23:58:00.088Z,14.18
